Time;durP1;ratioP1;P1;durP2;ratioP2;P2;SDS_P1;SDS_P2;PMS_P1;PMS_P2;Temp;Humidity;BMP_temperature;BMP_pressure;BME280_temperature;BME280_humidity;BME280_pressure;Samples;Min_cycle;Max_cycle;Signal;HPM_P1;HPM_P2
2024/03/18 00:00:21;;;;;;;7.45;5.47;;;10.40;99.90;;;;;;6144033;23;20009;-88
2024/03/18 00:02:52;;;;;;;7.35;5.57;;;10.50;99.90;;;;;;6143534;23;20024;-88
2024/03/18 00:05:20;;;;;;;10.38;6.47;;;10.50;99.90;;;;;;6167451;23;20008;-86
2024/03/18 00:07:49;;;;;;;9.95;6.85;;;10.50;99.90;;;;;;6143018;23;20012;-85
2024/03/18 00:10:16;;;;;;;7.65;6.13;;;10.50;99.90;;;;;;6120007;23;20011;-88
2024/03/18 00:12:44;;;;;;;9.45;7.22;;;10.50;99.90;;;;;;6143626;23;20009;-88
2024/03/18 00:15:13;;;;;;;10.85;6.63;;;10.50;99.90;;;;;;6143600;23;20004;-87
2024/03/18 00:17:40;;;;;;;10.38;7.68;;;10.50;99.90;;;;;;6166940;23;20012;-89
2024/03/18 00:20:10;;;;;;;12.95;9.38;;;10.50;99.90;;;;;;6145316;23;20012;-89
2024/03/18 00:22:37;;;;;;;9.32;6.60;;;10.60;99.90;;;;;;6146935;23;20008;-88
2024/03/18 00:25:04;;;;;;;7.72;6.20;;;10.50;99.90;;;;;;6146571;23;20028;-88
2024/03/18 00:27:30;;;;;;;8.82;7.70;;;10.60;99.90;;;;;;6207370;23;20004;-87
2024/03/18 00:29:56;;;;;;;7.55;6.60;;;10.60;99.90;;;;;;6146966;23;20449;-86
2024/03/18 00:32:23;;;;;;;10.18;7.22;;;10.60;99.90;;;;;;6157933;23;20001;-89
2024/03/18 00:34:50;;;;;;;10.25;7.43;;;10.60;99.90;;;;;;6181480;23;20008;-88
2024/03/18 00:37:17;;;;;;;9.13;7.05;;;10.60;99.90;;;;;;6122178;23;20028;-88
2024/03/18 00:39:43;;;;;;;6.93;6.22;;;10.60;99.90;;;;;;6170513;23;20031;-88
2024/03/18 00:42:10;;;;;;;8.98;7.22;;;10.60;99.90;;;;;;6146206;23;20693;-89
2024/03/18 00:44:36;;;;;;;8.88;7.45;;;10.60;99.90;;;;;;6121657;23;20008;-88
2024/03/18 00:47:02;;;;;;;8.90;7.15;;;10.60;99.90;;;;;;6171142;23;20009;-88
2024/03/18 00:49:31;;;;;;;8.68;6.97;;;10.70;99.90;;;;;;6114423;23;20406;-88
2024/03/18 00:51:58;;;;;;;12.20;8.13;;;10.70;99.90;;;;;;6156906;23;20007;-89
2024/03/18 00:54:24;;;;;;;8.23;6.13;;;10.70;99.90;;;;;;6120985;23;20011;-89
2024/03/18 00:56:51;;;;;;;9.25;7.30;;;10.70;99.90;;;;;;6170648;23;20008;-88
2024/03/18 00:59:19;;;;;;;8.18;6.25;;;10.70;99.90;;;;;;6206815;23;20018;-87
2024/03/18 01:01:47;;;;;;;11.52;7.45;;;10.70;99.90;;;;;;6145848;23;20021;-88
2024/03/18 01:04:13;;;;;;;9.10;7.45;;;10.70;99.90;;;;;;6145934;23;20012;-89
2024/03/18 01:06:41;;;;;;;9.43;7.20;;;10.70;99.90;;;;;;6141678;23;20020;-89
2024/03/18 01:09:07;;;;;;;9.93;8.40;;;10.70;99.90;;;;;;6139405;23;20009;-89
2024/03/18 01:11:34;;;;;;;10.52;8.27;;;10.70;99.90;;;;;;6117192;23;20469;-88
2024/03/18 01:14:01;;;;;;;10.65;8.98;;;10.70;99.90;;;;;;6152203;23;20012;-87
2024/03/18 01:16:27;;;;;;;11.30;9.05;;;10.80;99.90;;;;;;6092494;23;20350;-85
2024/03/18 01:18:54;;;;;;;11.93;9.63;;;10.80;99.90;;;;;;6091148;23;20315;-86
2024/03/18 01:21:21;;;;;;;11.52;9.52;;;10.80;99.90;;;;;;6116648;23;20013;-87
2024/03/18 01:23:48;;;;;;;9.70;8.48;;;10.80;99.90;;;;;;6151021;23;20488;-87
2024/03/18 01:26:14;;;;;;;11.23;10.10;;;10.80;99.90;;;;;;6115578;23;20047;-87
2024/03/18 01:28:41;;;;;;;13.13;9.55;;;10.80;99.90;;;;;;6139648;23;20194;-86
2024/03/18 01:31:08;;;;;;;13.45;9.40;;;10.80;99.90;;;;;;6121504;23;20405;-86
2024/03/18 01:33:34;;;;;;;9.93;8.32;;;10.80;99.90;;;;;;6119104;23;20009;-87
2024/03/18 01:36:02;;;;;;;11.27;9.88;;;10.80;99.90;;;;;;6126818;23;20001;-87
2024/03/18 01:38:28;;;;;;;13.07;10.25;;;10.80;99.90;;;;;;6124480;23;19997;-86
2024/03/18 01:40:55;;;;;;;15.98;12.00;;;10.80;99.90;;;;;;6115192;23;20404;-87
2024/03/18 01:43:22;;;;;;;16.50;11.60;;;10.80;99.90;;;;;;6139731;23;20462;-86
2024/03/18 01:45:49;;;;;;;15.77;13.07;;;10.80;99.90;;;;;;6116364;23;20327;-85
2024/03/18 01:48:16;;;;;;;17.25;13.95;;;10.80;99.90;;;;;;6125951;23;20001;-87
2024/03/18 01:50:43;;;;;;;20.08;14.70;;;10.80;99.90;;;;;;6178433;23;19997;-88
2024/03/18 01:53:11;;;;;;;15.43;12.82;;;10.80;99.90;;;;;;6152471;23;20475;-88
2024/03/18 01:55:38;;;;;;;15.48;13.20;;;10.80;99.90;;;;;;6118428;23;20016;-88
2024/03/18 01:58:06;;;;;;;18.88;14.98;;;10.80;99.90;;;;;;6127471;23;19996;-88
2024/03/18 02:00:35;;;;;;;19.65;15.93;;;10.80;99.90;;;;;;6123518;23;20013;-87
2024/03/18 02:03:04;;;;;;;17.80;14.63;;;10.80;99.90;;;;;;6092074;23;20016;-87
2024/03/18 02:05:33;;;;;;;19.08;14.57;;;10.90;99.90;;;;;;6150846;23;20001;-86
2024/03/18 02:08:00;;;;;;;17.10;13.68;;;10.80;99.90;;;;;;6149918;23;20005;-87
2024/03/18 02:10:26;;;;;;;17.77;14.13;;;10.80;99.90;;;;;;6151148;23;20005;-89
2024/03/18 02:12:58;;;;;;;17.67;13.45;;;10.90;99.90;;;;;;6091547;23;20009;-87
2024/03/18 02:15:24;;;;;;;20.03;14.87;;;10.90;99.90;;;;;;6092240;23;20371;-88
2024/03/18 02:17:53;;;;;;;19.20;14.13;;;10.90;99.90;;;;;;6139459;23;20111;-87
2024/03/18 02:20:20;;;;;;;22.58;15.73;;;10.90;99.90;;;;;;6140422;23;20009;-87
2024/03/18 02:22:47;;;;;;;19.05;14.40;;;10.90;99.90;;;;;;6116623;23;20115;-88
2024/03/18 02:25:15;;;;;;;17.73;14.80;;;10.90;99.90;;;;;;6139622;23;20012;-88
2024/03/18 02:27:41;;;;;;;24.40;18.02;;;10.90;99.90;;;;;;6116908;23;20032;-88
2024/03/18 02:30:11;;;;;;;26.35;18.35;;;10.90;99.90;;;;;;6092450;23;20008;-88
2024/03/18 02:32:41;;;;;;;22.60;17.30;;;10.90;99.90;;;;;;6142630;23;20053;-88
2024/03/18 02:35:16;;;;;;;29.73;21.15;;;10.90;99.90;;;;;;6093394;23;20009;-87
2024/03/18 02:37:45;;;;;;;21.67;16.92;;;10.90;99.90;;;;;;6142688;23;20005;-88
2024/03/18 02:40:12;;;;;;;20.45;15.18;;;10.90;99.90;;;;;;6117653;23;20031;-87
2024/03/18 02:42:40;;;;;;;20.30;14.60;;;10.90;99.90;;;;;;6117999;23;20008;-88
2024/03/18 02:45:09;;;;;;;22.00;15.60;;;10.90;99.90;;;;;;6116931;23;20012;-86
2024/03/18 02:47:43;;;;;;;19.75;15.52;;;11.00;99.90;;;;;;6090820;23;20016;-86
2024/03/18 02:50:10;;;;;;;20.23;14.35;;;11.00;99.90;;;;;;6116727;23;20009;-86
2024/03/18 02:52:41;;;;;;;19.63;14.48;;;11.00;99.90;;;;;;6117768;23;20009;-85
2024/03/18 02:55:08;;;;;;;19.60;14.35;;;11.00;99.90;;;;;;6150934;23;20012;-86
2024/03/18 02:57:34;;;;;;;20.55;15.50;;;11.00;99.90;;;;;;6126751;23;20012;-87
2024/03/18 03:00:05;;;;;;;17.63;14.45;;;11.10;99.90;;;;;;6092739;23;20005;-87
2024/03/18 03:02:32;;;;;;;18.80;15.18;;;11.10;99.90;;;;;;6117263;23;20013;-86
2024/03/18 03:04:59;;;;;;;21.55;16.38;;;11.10;99.90;;;;;;6093021;23;20421;-87
2024/03/18 03:07:25;;;;;;;18.00;14.57;;;11.10;99.90;;;;;;6116741;23;20012;-87
2024/03/18 03:09:52;;;;;;;22.90;17.90;;;11.10;99.90;;;;;;6117985;23;20008;-88
2024/03/18 03:12:18;;;;;;;23.23;18.02;;;11.10;99.90;;;;;;6093664;23;20005;-86
2024/03/18 03:14:45;;;;;;;22.13;16.50;;;11.10;99.90;;;;;;6092915;23;20327;-86
2024/03/18 03:17:11;;;;;;;19.67;15.43;;;11.20;99.90;;;;;;6092940;23;20060;-86
2024/03/18 03:19:38;;;;;;;24.08;17.63;;;11.10;99.90;;;;;;6092630;23;20445;-86
2024/03/18 03:22:04;;;;;;;23.27;17.85;;;11.10;99.90;;;;;;6117267;23;20013;-85
2024/03/18 03:24:30;;;;;;;25.60;17.90;;;11.10;99.90;;;;;;6116104;23;20016;-86
2024/03/18 03:26:57;;;;;;;28.30;19.15;;;11.20;99.90;;;;;;6127798;23;20001;-85
2024/03/18 03:29:23;;;;;;;24.10;17.73;;;11.10;99.90;;;;;;6121560;23;20017;-87
2024/03/18 03:31:50;;;;;;;32.65;21.73;;;11.20;99.90;;;;;;6096960;23;20090;-86
2024/03/18 03:34:16;;;;;;;24.75;18.63;;;11.10;99.90;;;;;;6118177;23;20371;-87
2024/03/18 03:36:44;;;;;;;26.67;18.80;;;11.20;99.90;;;;;;6117775;23;20341;-87
2024/03/18 03:39:11;;;;;;;26.45;18.25;;;11.20;99.90;;;;;;6116566;23;20016;-86
2024/03/18 03:41:38;;;;;;;24.48;17.40;;;11.20;99.90;;;;;;6117813;23;20016;-86
2024/03/18 03:44:04;;;;;;;21.60;17.13;;;11.20;99.90;;;;;;6092836;23;20005;-87
2024/03/18 03:46:31;;;;;;;23.13;17.27;;;11.20;99.90;;;;;;6093155;23;20552;-86
2024/03/18 03:48:57;;;;;;;25.40;18.52;;;11.20;99.90;;;;;;6092660;23;20012;-85
2024/03/18 03:51:24;;;;;;;24.67;18.65;;;11.20;99.90;;;;;;6092251;23;20248;-87
2024/03/18 03:53:51;;;;;;;28.92;20.00;;;11.20;99.90;;;;;;6127035;23;20028;-86
2024/03/18 03:56:17;;;;;;;25.70;19.38;;;11.20;99.90;;;;;;6117293;23;20012;-85
2024/03/18 03:58:48;;;;;;;24.45;18.27;;;11.20;99.90;;;;;;6116914;23;20005;-86
2024/03/18 04:01:14;;;;;;;27.02;17.88;;;11.20;99.90;;;;;;6116773;23;20439;-87
2024/03/18 04:03:41;;;;;;;28.00;20.38;;;11.20;99.90;;;;;;6178178;23;20016;-86
2024/03/18 04:06:07;;;;;;;27.65;19.08;;;11.20;99.90;;;;;;6151603;23;20345;-85
2024/03/18 04:08:33;;;;;;;26.20;19.27;;;11.20;99.90;;;;;;6150007;23;20001;-87
2024/03/18 04:10:59;;;;;;;29.70;20.50;;;11.20;99.90;;;;;;6116745;23;20028;-86
2024/03/18 04:13:26;;;;;;;26.35;18.40;;;11.20;99.90;;;;;;6092203;23;20006;-87
2024/03/18 04:15:52;;;;;;;26.08;19.05;;;11.20;99.90;;;;;;6116778;23;20016;-86
2024/03/18 04:18:19;;;;;;;26.80;18.70;;;11.20;99.90;;;;;;6091010;23;20473;-86
2024/03/18 04:20:46;;;;;;;27.95;20.95;;;11.20;99.90;;;;;;6117517;23;20485;-87
2024/03/18 04:23:13;;;;;;;30.23;20.42;;;11.20;99.90;;;;;;6147625;23;20635;-85
2024/03/18 04:25:41;;;;;;;27.05;20.23;;;11.20;99.90;;;;;;6141415;23;20013;-87
2024/03/18 04:28:07;;;;;;;30.63;19.77;;;11.20;99.90;;;;;;6091188;23;20025;-85
2024/03/18 04:30:36;;;;;;;31.45;21.85;;;11.20;99.90;;;;;;6117386;23;20013;-85
2024/03/18 04:33:04;;;;;;;33.90;23.30;;;11.20;99.90;;;;;;6152206;23;20005;-85
2024/03/18 04:35:31;;;;;;;32.83;22.58;;;11.20;99.90;;;;;;6149946;23;20393;-85
2024/03/18 04:37:57;;;;;;;30.45;21.05;;;11.20;99.90;;;;;;6115385;23;20001;-86
2024/03/18 04:40:25;;;;;;;31.63;21.45;;;11.20;99.90;;;;;;6116004;23;20013;-86
2024/03/18 04:42:52;;;;;;;29.30;20.42;;;11.20;99.90;;;;;;6092905;23;20005;-87
2024/03/18 04:45:20;;;;;;;28.42;20.98;;;11.20;99.90;;;;;;6091243;23;20016;-86
2024/03/18 04:47:51;;;;;;;36.00;22.00;;;11.20;99.90;;;;;;6115505;23;20009;-86
2024/03/18 04:50:20;;;;;;;32.92;20.98;;;11.20;99.90;;;;;;6151763;23;20005;-86
2024/03/18 04:52:47;;;;;;;36.75;24.42;;;11.20;99.90;;;;;;6140913;23;20299;-85
2024/03/18 04:55:15;;;;;;;36.42;22.88;;;11.20;99.90;;;;;;6126811;23;20371;-86
2024/03/18 04:57:42;;;;;;;34.83;22.85;;;11.20;99.90;;;;;;6117065;23;20007;-87
2024/03/18 05:00:16;;;;;;;35.10;23.63;;;11.20;99.90;;;;;;6092622;23;20015;-87
2024/03/18 05:02:44;;;;;;;32.88;22.92;;;11.30;99.90;;;;;;6144386;23;20436;-86
2024/03/18 05:05:12;;;;;;;36.63;24.17;;;11.30;99.90;;;;;;6091871;23;20326;-86
2024/03/18 05:07:39;;;;;;;29.48;19.95;;;11.20;99.90;;;;;;6115570;23;20418;-87
2024/03/18 05:10:07;;;;;;;30.45;20.85;;;11.30;99.90;;;;;;6116298;23;20009;-87
2024/03/18 05:12:33;;;;;;;36.80;24.20;;;11.30;99.90;;;;;;6116931;23;20020;-88
2024/03/18 05:15:00;;;;;;;33.53;22.58;;;11.30;99.90;;;;;;6116654;23;20001;-88
2024/03/18 05:17:26;;;;;;;30.83;21.48;;;11.20;99.90;;;;;;6116710;23;20001;-86
2024/03/18 05:19:53;;;;;;;30.08;20.55;;;11.20;99.90;;;;;;6127392;23;20426;-86
2024/03/18 05:22:20;;;;;;;42.28;28.30;;;11.20;99.90;;;;;;6126526;23;20394;-86
2024/03/18 05:24:47;;;;;;;32.60;21.77;;;11.30;99.90;;;;;;6151791;23;20430;-86
2024/03/18 05:27:15;;;;;;;36.20;21.77;;;11.20;99.90;;;;;;6094464;23;20555;-86
2024/03/18 05:29:42;;;;;;;32.67;21.63;;;11.20;99.90;;;;;;6118679;23;20725;-86
2024/03/18 05:32:10;;;;;;;28.27;20.25;;;11.20;99.90;;;;;;6118642;23;20012;-85
2024/03/18 05:34:36;;;;;;;32.25;21.27;;;11.30;99.90;;;;;;6141881;23;20004;-87
2024/03/18 05:37:04;;;;;;;34.85;22.52;;;11.30;99.90;;;;;;6093879;23;20008;-88
2024/03/18 05:39:31;;;;;;;32.00;22.10;;;11.30;99.90;;;;;;6151237;23;20414;-85
2024/03/18 05:41:57;;;;;;;29.80;21.60;;;11.30;99.90;;;;;;6092122;23;20005;-85
2024/03/18 05:44:24;;;;;;;31.25;21.38;;;11.30;99.90;;;;;;6140612;23;20334;-86
2024/03/18 05:46:51;;;;;;;32.10;21.45;;;11.30;99.90;;;;;;6152069;23;20009;-87
2024/03/18 05:49:18;;;;;;;44.85;29.98;;;11.30;99.90;;;;;;6091256;23;20006;-86
2024/03/18 05:51:44;;;;;;;36.63;25.08;;;11.30;99.90;;;;;;6091234;23;20005;-86
2024/03/18 05:54:11;;;;;;;29.95;23.02;;;11.30;99.90;;;;;;6116149;23;20035;-86
2024/03/18 05:56:37;;;;;;;28.75;22.02;;;11.30;99.90;;;;;;6116306;23;20489;-87
2024/03/18 05:59:04;;;;;;;32.05;21.75;;;11.30;99.90;;;;;;6091661;23;20005;-86
2024/03/18 06:01:30;;;;;;;34.40;22.50;;;11.30;99.90;;;;;;6151215;23;20013;-86
2024/03/18 06:03:57;;;;;;;39.60;23.77;;;11.30;99.90;;;;;;6119314;23;20015;-85
2024/03/18 06:06:23;;;;;;;41.80;26.05;;;11.30;99.90;;;;;;6153562;23;20074;-85
2024/03/18 06:08:49;;;;;;;36.10;23.58;;;11.30;99.90;;;;;;6128833;23;20539;-86
2024/03/18 06:11:16;;;;;;;32.60;21.65;;;11.30;99.90;;;;;;6143528;23;20005;-86
2024/03/18 06:13:42;;;;;;;36.35;23.88;;;11.30;99.90;;;;;;6153731;23;20001;-85
2024/03/18 06:16:08;;;;;;;34.58;22.38;;;11.30;99.90;;;;;;6128907;23;20013;-85
2024/03/18 06:18:36;;;;;;;36.30;23.02;;;11.40;99.90;;;;;;6117576;23;20009;-87
2024/03/18 06:21:03;;;;;;;36.10;23.02;;;11.40;99.90;;;;;;6128166;23;20032;-86
2024/03/18 06:23:33;;;;;;;36.97;24.90;;;11.40;99.90;;;;;;6174968;23;20009;-85
2024/03/18 06:26:03;;;;;;;36.53;23.23;;;11.40;99.90;;;;;;6117235;23;20451;-85
2024/03/18 06:28:34;;;;;;;35.33;23.15;;;11.50;99.90;;;;;;6115948;23;20024;-85
2024/03/18 06:31:00;;;;;;;38.40;22.50;;;11.40;99.90;;;;;;6116723;23;20009;-85
2024/03/18 06:33:27;;;;;;;41.15;25.35;;;11.40;99.90;;;;;;6126980;23;20119;-86
2024/03/18 06:35:54;;;;;;;39.88;25.05;;;11.40;99.90;;;;;;6141966;23;20038;-85
2024/03/18 06:38:21;;;;;;;38.05;24.42;;;11.40;99.90;;;;;;6116976;23;20009;-84
2024/03/18 06:40:48;;;;;;;35.53;22.77;;;11.50;99.90;;;;;;6094871;23;20020;-85
2024/03/18 06:43:18;;;;;;;33.58;21.27;;;11.50;99.90;;;;;;6094337;23;20021;-85
2024/03/18 06:45:44;;;;;;;35.95;21.73;;;11.50;99.90;;;;;;6116865;23;20005;-84
2024/03/18 06:48:11;;;;;;;44.15;25.45;;;11.50;99.90;;;;;;6084132;23;20009;-86
2024/03/18 06:50:39;;;;;;;40.65;22.25;;;11.50;99.90;;;;;;6151003;23;20083;-85
2024/03/18 06:53:07;;;;;;;35.80;21.70;;;11.60;99.90;;;;;;6127769;23;20398;-85
2024/03/18 06:55:34;;;;;;;35.63;21.38;;;11.60;99.90;;;;;;6115750;23;20020;-87
2024/03/18 06:58:05;;;;;;;44.63;24.77;;;11.60;99.90;;;;;;6150632;23;20406;-87
2024/03/18 07:00:32;;;;;;;43.47;25.38;;;11.60;99.90;;;;;;6092225;23;20540;-87
2024/03/18 07:02:58;;;;;;;40.65;24.02;;;11.60;99.90;;;;;;6118046;23;20029;-86
2024/03/18 07:05:25;;;;;;;37.45;23.52;;;11.60;99.90;;;;;;6092719;23;20016;-86
2024/03/18 07:07:52;;;;;;;39.45;23.25;;;11.70;99.90;;;;;;6092601;23;20005;-87
2024/03/18 07:10:19;;;;;;;39.90;24.35;;;11.70;99.90;;;;;;6118097;23;20012;-86
2024/03/18 07:12:46;;;;;;;41.08;24.30;;;11.70;99.90;;;;;;6129214;23;20008;-86
2024/03/18 07:15:16;;;;;;;38.53;23.00;;;11.70;99.90;;;;;;6143285;23;20017;-88
2024/03/18 07:17:43;;;;;;;39.50;23.05;;;11.70;99.90;;;;;;6178057;23;20013;-86
2024/03/18 07:20:11;;;;;;;40.10;22.13;;;11.80;99.90;;;;;;6092005;23;20009;-84
2024/03/18 07:22:39;;;;;;;45.10;25.65;;;11.80;99.90;;;;;;6177898;23;20524;-88
2024/03/18 07:25:11;;;;;;;53.45;28.30;;;11.80;99.90;;;;;;6120755;23;20012;-85
2024/03/18 07:27:39;;;;;;;44.53;24.57;;;11.80;99.90;;;;;;6158266;23;20005;-89
2024/03/18 07:30:11;;;;;;;46.95;27.15;;;11.80;99.90;;;;;;6120883;23;20434;-88
2024/03/18 07:32:37;;;;;;;42.42;25.40;;;11.80;99.90;;;;;;6130370;23;20001;-86
2024/03/18 07:35:04;;;;;;;41.85;23.65;;;11.80;99.90;;;;;;6092609;23;20009;-86
2024/03/18 07:37:32;;;;;;;40.08;23.02;;;11.80;99.90;;;;;;6127099;23;20005;-89
2024/03/18 07:39:59;;;;;;;42.50;25.17;;;11.80;99.90;;;;;;6093166;23;20147;-88
2024/03/18 07:42:26;;;;;;;37.63;22.85;;;11.80;99.90;;;;;;6094542;23;20485;-86
2024/03/18 07:44:54;;;;;;;36.83;22.13;;;11.90;99.90;;;;;;6115954;23;20954;-86
2024/03/18 07:47:20;;;;;;;37.88;22.33;;;11.90;99.90;;;;;;6092467;23;20016;-89
2024/03/18 07:49:47;;;;;;;37.88;22.58;;;11.90;99.90;;;;;;6153789;23;20028;-88
2024/03/18 07:52:14;;;;;;;39.30;23.52;;;11.90;99.90;;;;;;6118648;23;20346;-88
2024/03/18 07:54:42;;;;;;;43.60;24.95;;;12.00;99.90;;;;;;6117484;23;20008;-86
2024/03/18 07:57:08;;;;;;;42.85;26.13;;;12.00;99.90;;;;;;6119536;23;20005;-85
2024/03/18 07:59:35;;;;;;;38.25;22.88;;;12.10;99.90;;;;;;6119447;23;20013;-86
2024/03/18 08:02:01;;;;;;;38.72;22.80;;;12.10;99.90;;;;;;6151163;23;20008;-85
2024/03/18 08:04:27;;;;;;;41.38;24.75;;;12.20;99.90;;;;;;6093953;23;20434;-87
2024/03/18 08:06:54;;;;;;;42.90;25.50;;;12.20;99.90;;;;;;6151500;23;20489;-89
2024/03/18 08:09:20;;;;;;;38.45;23.17;;;12.30;99.90;;;;;;6151780;23;20012;-88
2024/03/18 08:11:47;;;;;;;39.22;23.42;;;12.40;99.90;;;;;;6117793;23;20425;-88
2024/03/18 08:14:14;;;;;;;33.78;21.85;;;12.40;99.90;;;;;;6152238;23;20001;-86
2024/03/18 08:16:42;;;;;;;40.53;25.08;;;12.50;99.90;;;;;;6092850;23;20241;-88
2024/03/18 08:19:08;;;;;;;38.38;25.65;;;12.50;99.90;;;;;;6092336;23;20020;-87
2024/03/18 08:21:35;;;;;;;48.00;28.33;;;12.60;99.90;;;;;;6117797;23;20017;-87
2024/03/18 08:24:03;;;;;;;51.90;32.97;;;12.70;99.90;;;;;;6118177;23;20013;-90
2024/03/18 08:26:33;;;;;;;48.25;29.63;;;12.70;99.90;;;;;;6093298;23;20016;-87
2024/03/18 08:29:00;;;;;;;46.35;29.40;;;12.80;99.90;;;;;;6115889;23;20013;-87
2024/03/18 08:31:27;;;;;;;43.92;28.00;;;12.80;99.90;;;;;;6092394;23;20331;-85
2024/03/18 08:33:56;;;;;;;54.65;31.98;;;12.90;99.90;;;;;;6092159;23;20012;-88
2024/03/18 08:36:23;;;;;;;48.78;31.52;;;12.90;99.90;;;;;;6151353;23;20005;-86
2024/03/18 08:38:50;;;;;;;45.72;28.38;;;13.00;99.90;;;;;;6126656;23;20009;-89
2024/03/18 08:41:18;;;;;;;43.13;30.17;;;13.00;99.90;;;;;;6091390;23;20023;-87
2024/03/18 08:43:44;;;;;;;45.22;28.98;;;13.10;99.90;;;;;;6150300;23;20457;-86
2024/03/18 08:46:10;;;;;;;39.92;27.55;;;13.20;99.90;;;;;;6114058;23;20005;-85
2024/03/18 08:48:37;;;;;;;40.75;27.60;;;13.20;99.90;;;;;;6176189;23;20009;-86
2024/03/18 08:51:04;;;;;;;39.78;26.98;;;13.10;99.90;;;;;;6141151;23;20362;-85
2024/03/18 08:53:31;;;;;;;41.60;27.55;;;13.10;99.90;;;;;;6092250;23;20004;-85
2024/03/18 08:55:57;;;;;;;38.45;24.80;;;13.10;99.90;;;;;;6178797;23;19997;-85
2024/03/18 08:58:24;;;;;;;38.55;24.25;;;13.10;99.90;;;;;;6125719;23;20001;-86
2024/03/18 09:00:50;;;;;;;31.45;21.98;;;13.10;99.90;;;;;;6116801;23;20325;-87
2024/03/18 09:03:17;;;;;;;32.38;21.75;;;13.10;99.90;;;;;;6142250;23;20020;-92
2024/03/18 09:05:53;;;;;;;31.45;23.25;;;13.10;99.90;;;;;;6093907;23;20013;-91
2024/03/18 09:08:21;;;;;;;31.35;21.65;;;13.10;99.90;;;;;;6129277;23;20009;-90
2024/03/18 09:10:47;;;;;;;31.80;21.23;;;13.10;99.90;;;;;;6119294;23;20035;-91
2024/03/18 09:13:14;;;;;;;32.13;21.52;;;13.10;99.90;;;;;;6129221;23;20342;-90
2024/03/18 09:15:41;;;;;;;39.03;24.90;;;13.10;99.90;;;;;;6119133;23;20445;-90
2024/03/18 09:18:07;;;;;;;34.33;22.98;;;13.00;99.90;;;;;;6095035;23;20334;-90
2024/03/18 09:20:34;;;;;;;32.80;21.90;;;12.90;99.90;;;;;;6122029;23;20016;-90
2024/03/18 09:23:00;;;;;;;30.88;21.38;;;12.80;99.90;;;;;;6120605;23;20504;-89
2024/03/18 09:25:27;;;;;;;25.00;19.20;;;12.70;99.90;;;;;;6120269;23;20009;-89
2024/03/18 09:27:54;;;;;;;27.92;20.40;;;12.70;99.90;;;;;;6094210;23;20009;-89
2024/03/18 09:30:22;;;;;;;24.92;19.00;;;12.70;99.90;;;;;;6093911;23;20032;-90
2024/03/18 09:32:49;;;;;;;27.90;19.25;;;12.60;99.90;;;;;;6118607;23;20009;-89
2024/03/18 09:35:15;;;;;;;31.17;19.92;;;12.60;99.90;;;;;;6093280;23;20020;-90
2024/03/18 09:37:42;;;;;;;27.95;20.15;;;12.60;99.90;;;;;;6141954;23;20020;-89
2024/03/18 09:40:10;;;;;;;33.20;24.15;;;12.60;99.90;;;;;;6094536;23;20496;-89
2024/03/18 09:42:38;;;;;;;33.45;23.65;;;12.60;99.90;;;;;;6119153;23;20013;-89
2024/03/18 09:45:11;;;;;;;36.28;23.92;;;12.60;99.90;;;;;;6124105;23;20450;-89
2024/03/18 09:47:37;;;;;;;33.17;22.40;;;12.50;99.90;;;;;;6093034;23;20013;-89
2024/03/18 09:50:04;;;;;;;31.65;21.25;;;12.50;99.90;;;;;;6127983;23;20028;-89
2024/03/18 09:52:36;;;;;;;30.42;20.60;;;12.40;99.90;;;;;;6117748;23;20436;-89
2024/03/18 09:55:20;;;;;;;29.43;20.40;;;12.40;99.90;;;;;;6127364;23;20005;-88
2024/03/18 09:57:48;;;;;;;29.55;20.10;;;12.40;99.90;;;;;;6151386;23;20235;-85
2024/03/18 10:00:19;;;;;;;28.20;18.80;;;12.40;99.90;;;;;;6093079;23;20009;-86
2024/03/18 10:02:46;;;;;;;29.95;19.77;;;12.50;99.90;;;;;;6119818;23;20036;-87
2024/03/18 10:05:13;;;;;;;33.67;22.35;;;12.60;99.90;;;;;;6115775;23;20015;-86
2024/03/18 10:07:41;;;;;;;36.85;23.98;;;12.80;99.90;;;;;;6151828;23;20438;-84
2024/03/18 10:10:14;;;;;;;31.73;22.98;;;13.00;99.90;;;;;;6153071;23;20437;-86
2024/03/18 10:12:41;;;;;;;42.13;26.85;;;13.20;99.90;;;;;;6153330;23;20008;-85
2024/03/18 10:15:12;;;;;;;30.13;22.10;;;13.40;99.90;;;;;;6153315;23;20001;-86
2024/03/18 10:17:41;;;;;;;35.15;23.33;;;13.60;99.90;;;;;;6117468;23;20001;-85
2024/03/18 10:20:21;;;;;;;27.95;20.27;;;13.70;99.90;;;;;;6130145;23;20017;-86
2024/03/18 10:22:51;;;;;;;33.40;21.27;;;13.80;99.90;;;;;;6142489;23;20385;-84
2024/03/18 10:25:21;;;;;;;27.40;19.50;;;13.90;99.90;;;;;;6116052;23;20464;-84
2024/03/18 10:27:48;;;;;;;26.02;19.42;;;13.90;99.90;;;;;;6117332;23;20389;-84
2024/03/18 10:30:16;;;;;;;25.58;18.98;;;14.00;99.90;;;;;;6152934;23;20008;-85
2024/03/18 10:32:44;;;;;;;28.42;20.13;;;14.00;99.90;;;;;;6118363;23;20469;-85
2024/03/18 10:35:25;;;;;;;21.80;16.73;;;14.20;99.90;;;;;;6141020;23;20009;-84
2024/03/18 10:38:06;;;;;;;21.95;16.48;;;14.50;99.90;;;;;;6151670;23;20465;-82
2024/03/18 10:40:34;;;;;;;18.33;14.07;;;15.00;99.90;;;;;;6127035;23;20334;-82
2024/03/18 10:43:12;;;;;;;17.23;13.95;;;15.40;99.90;;;;;;6094545;23;20021;-84
2024/03/18 10:45:46;;;;;;;20.85;14.95;;;15.70;99.90;;;;;;6091761;23;20035;-84
2024/03/18 10:48:16;;;;;;;17.35;13.90;;;15.60;99.90;;;;;;6092252;23;20354;-85
2024/03/18 10:50:45;;;;;;;18.80;13.25;;;15.50;99.90;;;;;;6092461;23;20009;-84
2024/03/18 10:53:20;;;;;;;15.23;11.82;;;15.30;99.90;;;;;;6151512;23;20016;-82
2024/03/18 10:55:49;;;;;;;18.73;14.00;;;15.20;99.90;;;;;;6151050;23;20009;-82
2024/03/18 10:58:17;;;;;;;16.88;12.52;;;14.90;99.90;;;;;;6150249;23;20024;-84
2024/03/18 11:00:45;;;;;;;13.40;10.18;;;14.80;99.90;;;;;;6092588;23;20020;-86
2024/03/18 11:03:13;;;;;;;15.73;11.43;;;14.60;99.90;;;;;;6116060;23;20016;-84
2024/03/18 11:05:49;;;;;;;15.43;11.95;;;14.50;99.90;;;;;;6091346;23;20009;-85
2024/03/18 11:08:21;;;;;;;13.88;10.82;;;14.30;99.90;;;;;;6125984;23;20109;-85
2024/03/18 11:10:51;;;;;;;19.85;12.95;;;14.20;99.90;;;;;;6091986;23;20044;-84
2024/03/18 11:13:19;;;;;;;16.83;12.65;;;14.10;99.90;;;;;;6141491;23;20016;-84
2024/03/18 11:15:51;;;;;;;18.80;13.88;;;14.00;99.90;;;;;;6091721;23;20013;-86
2024/03/18 11:18:22;;;;;;;18.10;12.27;;;13.90;99.90;;;;;;6091161;23;20009;-86
2024/03/18 11:20:53;;;;;;;15.95;12.35;;;13.80;99.90;;;;;;6145897;23;20358;-86
2024/03/18 11:23:25;;;;;;;20.10;14.55;;;13.70;99.90;;;;;;6121141;23;20013;-86
2024/03/18 11:26:05;;;;;;;20.63;14.73;;;13.70;99.90;;;;;;6091809;23;20446;-86
2024/03/18 11:28:36;;;;;;;17.00;12.65;;;13.60;99.90;;;;;;6116177;23;20446;-87
2024/03/18 11:31:04;;;;;;;22.13;15.35;;;13.60;99.90;;;;;;6121140;23;20013;-85
2024/03/18 11:33:35;;;;;;;23.08;15.65;;;13.50;99.90;;;;;;6117196;23;20045;-87
2024/03/18 11:36:09;;;;;;;20.98;15.68;;;13.40;99.90;;;;;;6092220;23;20020;-86
2024/03/18 11:38:36;;;;;;;23.98;16.88;;;13.40;99.90;;;;;;6124874;23;20008;-86
2024/03/18 11:41:03;;;;;;;23.63;15.75;;;13.30;99.90;;;;;;6151269;23;20016;-86
2024/03/18 11:43:33;;;;;;;26.42;16.70;;;13.40;99.90;;;;;;6092103;23;20020;-87
2024/03/18 11:46:00;;;;;;;29.58;18.98;;;13.60;99.90;;;;;;6118092;23;20005;-86
2024/03/18 11:48:30;;;;;;;29.90;18.90;;;14.10;99.90;;;;;;6090863;23;20013;-86
2024/03/18 11:50:56;;;;;;;23.45;18.50;;;14.70;99.90;;;;;;6091788;23;20013;-86
2024/03/18 11:53:22;;;;;;;26.45;18.65;;;15.30;99.90;;;;;;6117088;23;20062;-86
2024/03/18 11:55:53;;;;;;;23.60;16.88;;;16.10;99.90;;;;;;6141366;23;20025;-85
2024/03/18 11:58:20;;;;;;;22.63;15.23;;;16.60;99.90;;;;;;6092897;23;20024;-87
2024/03/18 12:00:48;;;;;;;17.23;13.65;;;16.80;99.90;;;;;;6117661;23;20009;-87
2024/03/18 12:03:15;;;;;;;18.10;13.32;;;16.90;99.90;;;;;;6092838;23;20414;-85
2024/03/18 12:05:43;;;;;;;22.30;14.18;;;16.90;99.90;;;;;;6127371;23;20421;-87
2024/03/18 12:08:26;;;;;;;19.92;13.10;;;16.90;99.90;;;;;;6116663;23;20020;-88
2024/03/18 12:10:54;;;;;;;;;;;16.80;99.90;;;;;;6152999;23;20238;-86
2024/03/18 12:13:22;;;;;;;16.25;11.02;;;17.30;99.90;;;;;;6116193;23;19907;-85
2024/03/18 12:15:49;;;;;;;15.98;9.68;;;18.40;99.90;;;;;;6151266;23;20410;-85
2024/03/18 12:18:16;;;;;;;15.90;10.95;;;18.90;99.90;;;;;;6091756;23;20005;-86
2024/03/18 12:20:42;;;;;;;13.63;9.88;;;18.90;99.90;;;;;;6152090;23;20453;-87
2024/03/18 12:28:31;;;;;;;18.33;10.63;;;18.60;99.90;;;;;;6092667;23;20036;-85
2024/03/18 12:28:44;;;;;;;21.48;15.43;;;18.20;99.90;;;;;;6115163;23;20020;-90
2024/03/18 12:31:15;;;;;;;22.98;14.73;;;18.00;99.90;;;;;;6093637;23;20013;-92
2024/03/18 12:33:45;;;;;;;19.00;12.02;;;18.10;99.90;;;;;;6117962;23;20350;-93